SCC: Laguna Seca: GS practice two times

Pos Num Class Team Time Gap To 1st Speed --- --- ----- ------------------------------ ---------- ------- ------- ------- 1. 41 GS TRG 1:37.130 82.949 2. 25...

Pos Num Class Team                                 Time     Gap  To 1st   Speed
--- --- ----- ------------------------------ ---------- ------- ------- -------
 1.  41 GS    TRG                              1:37.130                  82.949
 2.  25 GS    Fiorano/C-MAX Racing             1:37.166   0.036   0.036  82.918
 3.  49 GS    Marcus Motorsports               1:37.358   0.192   0.228  82.754
 4.  99 GS    Automatic Racing                 1:37.512   0.154   0.382  82.624
 5.  80 GS    Kinetic Motorsports              1:37.589   0.077   0.459  82.558
 6.  28 GS    Fall-Line Motorsports            1:37.598   0.009   0.468  82.551
 7.  40 GS    TRG                              1:37.613   0.015   0.483  82.538
 8.   5 GS    Blackforest Motorsports          1:37.615   0.002   0.485  82.536
 9.  97 GS    Turner Motorsport                1:37.636   0.021   0.506  82.519
10.  38 GS    BGB Motorsports                  1:37.681   0.045   0.551  82.481
11.  33 GS    Playboy Racing                   1:37.858   0.177   0.728  82.332
12.  20 GS    Horsepower Ranch                 1:37.897   0.039   0.767  82.299
13.  88 GS    LNS Motorsport                   1:37.915   0.018   0.785  82.284
14.  37 GS    JBS Racing                       1:37.921   0.006   0.791  82.279
15.   6 GS    Blackforest Motorsports          1:37.937   0.016   0.807  82.265
16.  55 GS    Hyper Sport                      1:37.963   0.026   0.833  82.243
17.  39 GS    TRG                              1:37.972   0.009   0.842  82.236
18.  59 GS    Rehagen Racing                   1:38.074   0.102   0.944  82.150
19.  79 GS    Kinetic Motorsports              1:38.102   0.028   0.972  82.127
20. 150 GS    Jim Click Racing                 1:38.112   0.010   0.982  82.118
21.  52 GS    Rehagen Racing                   1:38.355   0.243   1.225  81.916
22.  09 GS    Automatic Racing                 1:38.428   0.073   1.298  81.855
23.  90 GS    Automatic Racing                 1:38.462   0.034   1.332  81.826
24.  60 GS    Horsepower Ranch                 1:38.477   0.015   1.347  81.814
25.   4 GS    Blackforest Motorsports          1:38.612   0.135   1.482  81.702
26.  26 GS    Fiorano/C-MAX Racing             1:38.666   0.054   1.536  81.657
27.  91 GS    Automatic Racing                 1:38.755   0.089   1.625  81.584
28. 154 GS    Jim Click Racing                 1:38.780   0.025   1.650  81.563
29.  83 GS    BGB Motorsports                  1:38.811   0.031   1.681  81.537
30.  96 GS    Turner Motorsport                1:38.899   0.088   1.769  81.465
31.  87 GS    LNS Motorsport                   1:38.930   0.031   1.800  81.439
32.  43 GS    ASC Motorsports                  1:39.015   0.085   1.885  81.369
33.  11 GS    Southwest Racers Group           1:39.353   0.338   2.223  81.093
34.  17 GS    Team Centurion                   1:39.406   0.053   2.276  81.049
35.  46 GS    Fall-Line Motorsports            1:39.508   0.102   2.378  80.966
36.  54 GS    Hyper Sport                      1:39.736   0.228   2.606  80.781
37.  78 GS    Kinetic Motorsports              1:39.960   0.224   2.830  80.600
38.  42 GS    TRG                              1:40.411   0.451   3.281  80.238
39.  89 GS    LNS Motorsport                   1:40.819   0.408   3.689  79.914
40. 137 GS    JBS Motorsports                  1:40.854   0.035   3.724  79.886
41.  77 GS    Blackforest Motorsports          1:42.514   1.660   5.384  78.592
42.  36 GS    NoHotWire Racing                 1:44.087   1.573   6.957  77.404

Write a comment
Show comments
About this article
Series Grand-Am
Drivers Jim Click
Teams Kinetic Motorsports , Rehagen Racing , Turner Motorsport , Automatic Racing , Fall-Line Motorsports